createdAt,value
2019-05-07T00:01:12.283Z,72.58
2019-05-07T00:03:42.766Z,73.17
2019-05-07T00:06:13.490Z,73.66
2019-05-07T00:08:44.994Z,74.15
2019-05-07T00:11:15.838Z,74.47
2019-05-07T00:13:46.531Z,74.76
2019-05-07T00:16:17.131Z,75.10
2019-05-07T00:18:47.615Z,75.31
2019-05-07T00:21:18.009Z,75.57
2019-05-07T00:23:48.634Z,75.70
2019-05-07T00:26:19.088Z,75.68
2019-05-07T00:28:49.610Z,75.76
2019-05-07T00:31:23.275Z,75.74
2019-05-07T00:33:53.333Z,75.87
2019-05-07T00:36:33.473Z,76.02
2019-05-07T00:39:16.182Z,76.08
2019-05-07T00:41:53.091Z,75.77
2019-05-07T00:44:23.794Z,75.40
2019-05-07T00:46:54.251Z,75.29
2019-05-07T00:49:26.597Z,75.17
2019-05-07T00:51:57.198Z,74.87
2019-05-07T00:54:28.406Z,74.65
2019-05-07T00:56:58.881Z,73.66
2019-05-07T00:59:29.507Z,73.07
2019-05-07T01:02:02.241Z,71.95
2019-05-07T01:04:33.242Z,71.13
2019-05-07T01:07:03.701Z,68.89
2019-05-07T01:09:34.511Z,67.17
2019-05-07T01:12:05.149Z,66.83
2019-05-07T01:14:35.821Z,65.82
2019-05-07T01:17:06.251Z,65.18
2019-05-07T01:19:36.950Z,64.18
2019-05-07T01:22:07.606Z,63.44
2019-05-07T01:24:38.081Z,63.46
2019-05-07T01:27:08.761Z,63.05
2019-05-07T01:29:39.195Z,62.81
2019-05-07T01:32:27.851Z,63.05
2019-05-07T01:35:05.901Z,63.24
2019-05-07T01:37:36.263Z,63.25
2019-05-07T01:40:07.150Z,63.70
2019-05-07T01:42:37.546Z,64.32
2019-05-07T01:45:09.622Z,64.95
2019-05-07T01:47:42.327Z,65.35
2019-05-07T01:50:13.359Z,65.63
2019-05-07T01:52:43.913Z,66.08
2019-05-07T01:55:14.419Z,66.19
2019-05-07T01:57:44.821Z,66.54
2019-05-07T02:00:15.736Z,66.59
2019-05-07T02:02:58.371Z,67.00
2019-05-07T02:05:56.954Z,67.14
2019-05-07T02:09:04.455Z,67.29
2019-05-07T02:11:39.544Z,67.56
2019-05-07T02:14:09.635Z,67.54
2019-05-07T02:16:41.866Z,67.81
2019-05-07T02:19:12.795Z,68.02
2019-05-07T02:21:43.383Z,68.43
2019-05-07T02:24:13.806Z,68.60
2019-05-07T02:26:44.382Z,68.83
2019-05-07T02:29:15.403Z,69.12
2019-05-07T02:31:45.727Z,69.22
2019-05-07T02:34:16.118Z,69.07
2019-05-07T02:36:46.535Z,69.18
2019-05-07T02:39:26.898Z,69.18
2019-05-07T02:41:57.239Z,68.97
2019-05-07T02:44:27.960Z,68.97
2019-05-07T02:47:13.017Z,68.95
2019-05-07T02:49:53.682Z,68.50
2019-05-07T02:52:43.791Z,69.29
2019-05-07T02:55:25.712Z,70.16
2019-05-07T02:57:56.212Z,71.45
2019-05-07T03:00:26.713Z,72.03
2019-05-07T03:02:57.521Z,73.31
2019-05-07T03:05:28.156Z,73.57
2019-05-07T03:07:58.549Z,74.38
2019-05-07T03:10:29.207Z,74.39
2019-05-07T03:13:02.706Z,75.55
2019-05-07T03:15:33.184Z,75.78
2019-05-07T03:18:04.619Z,76.00
2019-05-07T03:20:47.877Z,75.70
2019-05-07T03:23:22.848Z,75.15
2019-05-07T03:26:28.131Z,75.02
2019-05-07T03:29:03.680Z,75.04
2019-05-07T03:31:56.219Z,75.91
2019-05-07T03:34:48.923Z,75.91
2019-05-07T03:37:23.477Z,75.62
2019-05-07T03:39:54.356Z,74.90
2019-05-07T03:42:25.260Z,74.56
2019-05-07T03:45:03.841Z,74.77
2019-05-07T03:47:45.872Z,74.75
2019-05-07T03:50:16.734Z,75.06
2019-05-07T03:52:47.527Z,74.53
2019-05-07T03:55:18.136Z,74.60
2019-05-07T03:57:48.710Z,74.56
2019-05-07T04:00:19.448Z,73.50
2019-05-07T04:02:52.484Z,74.08
2019-05-07T04:05:23.189Z,73.65
2019-05-07T04:07:54.161Z,73.02
2019-05-07T04:10:24.578Z,72.55
2019-05-07T04:12:55.162Z,70.87
2019-05-07T04:15:25.943Z,70.55
2019-05-07T04:17:57.164Z,70.88
2019-05-07T04:20:27.732Z,70.61
2019-05-07T04:22:58.698Z,70.43
2019-05-07T04:25:45.480Z,70.63
2019-05-07T04:28:33.032Z,70.38
2019-05-07T04:31:03.162Z,70.33
2019-05-07T04:33:43.648Z,70.70
2019-05-07T04:36:34.450Z,69.90
2019-05-07T04:39:06.038Z,69.83
2019-05-07T04:41:36.607Z,69.22
2019-05-07T04:44:07.143Z,69.93
2019-05-07T04:46:37.647Z,69.28
2019-05-07T04:49:08.216Z,68.34
2019-05-07T04:52:04.178Z,68.63
2019-05-07T04:54:34.768Z,68.15
2019-05-07T04:57:09.006Z,68.33
2019-05-07T04:59:42.550Z,68.86
2019-05-07T05:02:16.811Z,68.57
2019-05-07T05:04:47.324Z,69.34
2019-05-07T05:07:19.067Z,68.87
2019-05-07T05:09:49.530Z,68.64
2019-05-07T05:12:22.455Z,68.48
2019-05-07T05:14:52.505Z,68.10
2019-05-07T05:17:22.934Z,67.96
2019-05-07T05:19:53.547Z,68.39
2019-05-07T05:22:42.457Z,67.75
2019-05-07T05:25:29.714Z,67.49
2019-05-07T05:28:02.058Z,66.86
2019-05-07T05:30:44.515Z,66.09
2019-05-07T05:33:15.019Z,64.93
2019-05-07T05:35:45.319Z,63.49
2019-05-07T05:38:15.853Z,58.78
2019-05-07T05:40:46.405Z,57.22
2019-05-07T05:43:29.170Z,56.96
2019-05-07T05:46:02.756Z,57.11
2019-05-07T05:48:33.565Z,56.82
2019-05-07T05:51:35.288Z,55.00
2019-05-07T05:54:37.247Z,51.55
2019-05-07T05:57:36.061Z,47.98
2019-05-07T06:00:27.581Z,48.51
2019-05-07T06:03:23.497Z,47.46
2019-05-07T06:06:19.171Z,46.96
2019-05-07T06:08:59.082Z,48.86
2019-05-07T06:11:46.843Z,49.78
2019-05-07T06:14:33.031Z,51.79
2019-05-07T06:17:19.470Z,52.30
2019-05-07T06:19:56.567Z,51.31
2019-05-07T06:22:52.930Z,53.45
2019-05-07T06:25:24.956Z,54.18
2019-05-07T06:27:55.876Z,54.65
2019-05-07T06:30:26.301Z,54.82
2019-05-07T06:32:56.817Z,56.00
2019-05-07T06:35:27.249Z,56.50
2019-05-07T06:37:57.756Z,57.66
2019-05-07T06:40:51.961Z,56.96
2019-05-07T06:43:33.904Z,56.93
2019-05-07T06:46:05.102Z,57.78
2019-05-07T06:48:42.329Z,57.64
2019-05-07T06:51:08.179Z,58.96
2019-05-07T06:53:38.690Z,59.08
2019-05-07T06:56:09.144Z,58.46
2019-05-07T06:58:45.084Z,58.25
2019-05-07T07:01:23.425Z,58.73
2019-05-07T07:04:07.764Z,58.19
2019-05-07T07:07:26.668Z,58.81
2019-05-07T07:10:02.724Z,58.21
2019-05-07T07:12:33.412Z,59.47
2019-05-07T07:15:04.469Z,59.92
2019-05-07T07:17:35.127Z,59.76
2019-05-07T07:20:06.215Z,59.50
2019-05-07T07:22:36.808Z,60.21
2019-05-07T07:25:08.945Z,60.19
2019-05-07T07:27:39.678Z,59.75
2019-05-07T07:30:29.402Z,59.16
2019-05-07T07:33:02.841Z,59.85
2019-05-07T07:35:33.389Z,59.70
2019-05-07T07:38:22.887Z,59.56
2019-05-07T07:41:05.398Z,60.17
2019-05-07T07:43:36.097Z,60.58
2019-05-07T07:46:06.597Z,60.55
2019-05-07T07:48:37.567Z,59.84
2019-05-07T07:51:07.968Z,59.90
2019-05-07T07:53:38.666Z,59.13
2019-05-07T07:56:51.825Z,58.16
2019-05-07T07:59:42.107Z,57.91
2019-05-07T08:02:32.212Z,57.07
2019-05-07T08:05:04.722Z,56.84
2019-05-07T08:07:35.618Z,56.36
2019-05-07T08:10:07.645Z,56.95
2019-05-07T08:12:38.225Z,57.91
2019-05-07T08:15:16.647Z,56.94
2019-05-07T08:17:42.713Z,56.64
2019-05-07T08:20:14.232Z,56.86
2019-05-07T08:22:44.666Z,57.44
2019-05-07T08:25:15.472Z,58.37
2019-05-07T08:27:46.095Z,58.13
2019-05-07T08:30:22.243Z,58.79
2019-05-07T08:33:09.665Z,57.94
2019-05-07T08:35:45.328Z,58.72
2019-05-07T08:38:15.869Z,58.98
2019-05-07T08:40:46.349Z,58.39
2019-05-07T08:43:16.737Z,58.23
2019-05-07T08:46:18.373Z,57.78
2019-05-07T08:48:50.242Z,57.72
2019-05-07T08:51:22.361Z,57.33
2019-05-07T08:54:05.852Z,55.54
2019-05-07T08:56:37.888Z,55.02
2019-05-07T08:59:08.953Z,54.90
2019-05-07T09:01:43.253Z,54.07
2019-05-07T09:04:13.929Z,54.85
2019-05-07T09:06:44.365Z,52.73
2019-05-07T09:09:16.656Z,53.04
2019-05-07T09:11:48.046Z,53.28
2019-05-07T09:14:18.481Z,52.77
2019-05-07T09:16:49.218Z,51.28
2019-05-07T09:19:21.568Z,52.46
2019-05-07T09:21:52.913Z,52.04
2019-05-07T09:24:23.626Z,52.22
2019-05-07T09:27:09.171Z,51.45
2019-05-07T09:29:52.782Z,52.18
2019-05-07T09:32:32.696Z,52.52
2019-05-07T09:35:03.676Z,53.39
2019-05-07T09:37:34.205Z,53.12
2019-05-07T09:40:04.813Z,52.78
2019-05-07T09:42:35.752Z,53.06
2019-05-07T09:45:07.683Z,52.95
2019-05-07T09:47:38.371Z,53.35
2019-05-07T09:50:09.075Z,54.14
2019-05-07T09:52:39.864Z,53.64
2019-05-07T09:55:16.585Z,54.16
2019-05-07T09:57:44.045Z,53.69
2019-05-07T10:00:15.167Z,54.23
2019-05-07T10:02:45.816Z,54.40
2019-05-07T10:05:16.783Z,53.95
2019-05-07T10:07:47.402Z,54.82
2019-05-07T10:10:18.182Z,54.39
2019-05-07T10:12:58.174Z,55.00
2019-05-07T10:15:28.779Z,55.33
2019-05-07T10:18:12.921Z,55.48
2019-05-07T10:20:43.562Z,55.64
2019-05-07T10:23:22.977Z,55.83
2019-05-07T10:25:54.030Z,55.86
2019-05-07T10:28:24.629Z,56.25
2019-05-07T10:30:56.078Z,55.75
2019-05-07T10:33:26.609Z,55.52
2019-05-07T10:35:57.150Z,56.27
2019-05-07T10:38:27.857Z,56.05
2019-05-07T10:40:58.587Z,55.82
2019-05-07T10:43:29.342Z,55.99
2019-05-07T10:46:22.110Z,57.39
2019-05-07T10:49:17.438Z,56.54
2019-05-07T10:51:47.896Z,56.34
2019-05-07T10:54:18.876Z,57.05
2019-05-07T10:56:49.635Z,55.84
2019-05-07T10:59:22.526Z,55.42
2019-05-07T11:02:07.030Z,56.16
2019-05-07T11:08:18.482Z,55.84
2019-05-07T11:17:28.162Z,52.58
2019-05-07T11:20:49.303Z,52.40
2019-05-07T11:37:02.130Z,52.28
2019-05-07T11:39:33.209Z,51.96
2019-05-07T11:45:37.296Z,50.94
2019-05-07T11:48:08.147Z,51.66
2019-05-07T11:50:45.642Z,52.01
2019-05-07T11:53:17.865Z,51.96
2019-05-07T11:55:48.368Z,52.95
2019-05-07T11:58:19.368Z,52.97
2019-05-07T12:00:58.701Z,53.47
2019-05-07T12:03:29.411Z,53.93
2019-05-07T12:06:02.106Z,53.98
2019-05-07T12:08:42.885Z,54.73
2019-05-07T12:11:05.560Z,54.71
2019-05-07T12:13:36.453Z,55.41
2019-05-07T12:16:07.450Z,55.48
2019-05-07T12:18:38.449Z,55.60
2019-05-07T12:21:18.320Z,55.67
2019-05-07T12:23:42.226Z,56.70
2019-05-07T12:26:12.998Z,56.51
2019-05-07T12:28:43.942Z,56.77
2019-05-07T12:31:36.952Z,57.47
2019-05-07T12:34:11.883Z,57.65
2019-05-07T12:36:42.673Z,58.10
2019-05-07T12:39:14.572Z,58.29
2019-05-07T12:41:45.440Z,58.27
2019-05-07T12:44:16.107Z,58.60
2019-05-07T12:46:46.671Z,58.25
2019-05-07T12:49:17.260Z,58.43
2019-05-07T12:52:05.946Z,59.30
2019-05-07T12:54:45.787Z,59.09
2019-05-07T12:57:16.706Z,59.72
2019-05-07T12:59:49.634Z,59.45
2019-05-07T13:02:48.891Z,59.66
2019-05-07T13:05:20.053Z,59.97
2019-05-07T13:07:55.189Z,60.45
2019-05-07T13:10:25.910Z,60.72
2019-05-07T13:12:56.829Z,60.82
2019-05-07T13:15:28.438Z,61.89
2019-05-07T13:17:59.256Z,61.96
2019-05-07T13:20:31.996Z,61.77
2019-05-07T13:23:03.629Z,62.19
2019-05-07T13:25:34.329Z,62.46
2019-05-07T13:28:06.696Z,60.28
2019-05-07T13:30:37.637Z,59.81
2019-05-07T13:33:08.412Z,60.38
2019-05-07T13:35:39.537Z,60.28
2019-05-07T13:38:27.616Z,59.23
2019-05-07T13:41:05.308Z,59.29
2019-05-07T13:43:41.200Z,58.86
2019-05-07T13:46:14.086Z,58.44
2019-05-07T13:49:40.112Z,58.99
2019-05-07T13:52:11.800Z,59.57
2019-05-07T13:55:18.312Z,59.13
2019-05-07T14:01:43.766Z,59.77
2019-05-07T14:04:35.691Z,59.18
2019-05-07T14:07:23.645Z,59.51
2019-05-07T14:10:09.676Z,59.65
2019-05-07T14:13:24.324Z,59.53
2019-05-07T14:16:15.019Z,59.46
2019-05-07T14:18:45.801Z,59.80
2019-05-07T14:32:12.801Z,60.25
2019-05-07T14:35:02.161Z,60.21
2019-05-07T14:37:38.934Z,60.78
2019-05-07T14:40:10.062Z,60.80
2019-05-07T14:42:45.623Z,60.79
2019-05-07T14:45:18.343Z,60.94
2019-05-07T14:47:49.296Z,61.69
2019-05-07T14:50:19.929Z,61.54
2019-05-07T14:59:59.707Z,62.03
2019-05-07T15:03:12.430Z,62.08
2019-05-07T15:05:43.230Z,62.10
2019-05-07T15:22:18.493Z,59.36
2019-05-07T15:24:49.131Z,58.38
2019-05-07T15:28:23.177Z,57.78
2019-05-07T15:31:05.722Z,57.77
2019-05-07T15:33:36.141Z,58.34
2019-05-07T15:36:06.904Z,58.10
2019-05-07T15:38:37.617Z,57.95
2019-05-07T15:41:08.166Z,58.00
2019-05-07T15:43:38.660Z,58.18
2019-05-07T15:46:09.425Z,59.09
2019-05-07T15:48:41.888Z,59.33
2019-05-07T15:51:12.865Z,59.09
2019-05-07T16:05:47.588Z,58.08
2019-05-07T16:08:18.814Z,58.14
2019-05-07T16:10:49.213Z,58.58
2019-05-07T16:13:24.639Z,58.64
2019-05-07T16:15:55.139Z,58.83
2019-05-07T16:18:32.680Z,58.99
2019-05-07T16:21:05.012Z,59.31
2019-05-07T16:23:35.679Z,59.40
2019-05-07T16:26:06.233Z,59.96
2019-05-07T16:28:36.834Z,60.35
2019-05-07T16:31:07.456Z,60.56
2019-05-07T16:33:38.048Z,61.13
2019-05-07T16:36:09.655Z,61.37
2019-05-07T16:38:41.843Z,62.04
2019-05-07T16:41:13.574Z,62.15
2019-05-07T16:43:46.164Z,62.27
2019-05-07T16:46:16.994Z,62.95
2019-05-07T16:48:48.645Z,62.93
2019-05-07T16:51:19.133Z,62.42
2019-05-07T16:53:49.494Z,62.15
2019-05-07T16:56:20.113Z,62.28
2019-05-07T16:58:56.117Z,62.32
2019-05-07T17:01:27.420Z,62.30
2019-05-07T17:04:02.595Z,62.17
2019-05-07T17:06:35.642Z,62.25
2019-05-07T17:09:13.621Z,62.62
2019-05-07T17:11:45.441Z,62.65
2019-05-07T17:14:16.983Z,63.05
2019-05-07T17:16:51.583Z,63.23
2019-05-07T17:19:22.517Z,62.96
2019-05-07T17:21:53.057Z,62.90
2019-05-07T17:24:26.739Z,63.10
2019-05-07T17:26:59.044Z,62.75
2019-05-07T17:29:32.136Z,63.23
2019-05-07T17:32:06.670Z,63.43
2019-05-07T17:34:37.370Z,63.25
2019-05-07T17:37:12.661Z,63.43
2019-05-07T17:39:43.315Z,62.88
2019-05-07T17:42:17.643Z,62.93
2019-05-07T17:44:48.152Z,62.33
2019-05-07T17:47:21.816Z,62.37
2019-05-07T17:49:52.908Z,62.66
2019-05-07T17:52:24.760Z,63.01
2019-05-07T17:54:55.415Z,63.33
2019-05-07T17:57:25.883Z,63.62
2019-05-07T17:59:57.613Z,63.49
2019-05-07T18:02:38.908Z,63.64
2019-05-07T18:05:11.887Z,63.59
2019-05-07T18:07:42.478Z,63.75
2019-05-07T18:10:13.994Z,63.98
2019-05-07T18:12:45.566Z,63.84
2019-05-07T18:15:16.244Z,64.12
2019-05-07T18:17:57.184Z,64.47
2019-05-07T18:20:29.208Z,64.22
2019-05-07T18:23:02.638Z,64.23
2019-05-07T18:25:38.982Z,64.40
2019-05-07T18:28:12.269Z,64.21
2019-05-07T18:30:49.497Z,64.14
2019-05-07T18:33:37.896Z,64.19
2019-05-07T18:36:08.612Z,63.95
2019-05-07T18:38:39.462Z,64.44
2019-05-07T18:41:12.136Z,64.55
2019-05-07T18:43:43.612Z,64.72
2019-05-07T18:46:17.190Z,64.48
2019-05-07T18:48:47.992Z,64.42
2019-05-07T18:51:20.684Z,64.59
2019-05-07T18:53:54.941Z,64.52
2019-05-07T18:56:42.022Z,64.31
2019-05-07T18:59:07.620Z,63.85
2019-05-07T19:01:42.139Z,64.14
2019-05-07T19:04:13.150Z,64.37
2019-05-07T19:06:43.635Z,64.25
2019-05-07T19:09:14.184Z,64.34
2019-05-07T19:11:45.735Z,64.28
2019-05-07T19:14:16.358Z,64.19
2019-05-07T19:16:47.003Z,64.10
2019-05-07T19:19:18.609Z,64.02
2019-05-07T19:21:49.184Z,64.17
2019-05-07T19:24:21.944Z,63.89
2019-05-07T19:26:52.875Z,64.13
2019-05-07T19:29:25.225Z,64.02
2019-05-07T19:31:55.599Z,64.19
2019-05-07T19:34:26.019Z,64.20
2019-05-07T19:36:56.495Z,64.92
2019-05-07T19:39:29.473Z,64.82
2019-05-07T19:41:59.924Z,64.49
2019-05-07T19:44:38.387Z,64.47
2019-05-07T19:47:09.109Z,64.84
2019-05-07T19:49:41.822Z,65.15
2019-05-07T19:52:12.587Z,65.22
2019-05-07T19:54:57.693Z,65.34
2019-05-07T19:57:23.001Z,65.31
2019-05-07T19:59:52.684Z,65.43
2019-05-07T20:02:27.116Z,65.31
2019-05-07T20:04:58.984Z,65.22
2019-05-07T20:07:29.448Z,65.06
2019-05-07T20:10:02.529Z,65.12
2019-05-07T20:12:32.778Z,65.21
2019-05-07T20:15:03.370Z,65.05
2019-05-07T20:17:34.627Z,64.96
2019-05-07T20:20:05.227Z,65.05
2019-05-07T20:22:35.551Z,64.84
2019-05-07T20:25:18.132Z,64.73
2019-05-07T20:27:38.482Z,64.90
2019-05-07T20:30:12.215Z,64.97
2019-05-07T20:32:43.959Z,65.27
2019-05-07T20:35:14.631Z,65.34
2019-05-07T20:37:45.348Z,65.20
2019-05-07T20:40:17.337Z,65.22
2019-05-07T20:42:47.930Z,65.57
2019-05-07T20:45:18.871Z,65.59
2019-05-07T20:47:49.332Z,65.43
2019-05-07T20:50:22.160Z,65.60
2019-05-07T20:52:52.471Z,65.71
2019-05-07T20:55:43.879Z,66.36
2019-05-07T20:58:15.563Z,66.60
